Time;durP1;ratioP1;P1;durP2;ratioP2;P2;SDS_P1;SDS_P2;PMS_P1;PMS_P2;Temp;Humidity;BMP_temperature;BMP_pressure;BME280_temperature;BME280_humidity;BME280_pressure;Samples;Min_cycle;Max_cycle;Signal;HPM_P1;HPM_P2
2022/10/16 00:01:25;;;;;;;9.80;2.17;;;12.10;99.90;;;;;;5049682;28;20049;-77
2022/10/16 00:03:52;;;;;;;8.07;2.13;;;12.00;99.90;;;;;;5048567;28;20056;-77
2022/10/16 00:06:19;;;;;;;9.35;1.92;;;12.00;99.90;;;;;;5041728;28;20102;-77
2022/10/16 00:08:46;;;;;;;8.13;2.33;;;12.00;99.90;;;;;;5047549;28;20064;-77
2022/10/16 00:11:21;;;;;;;11.13;2.08;;;12.00;99.90;;;;;;5047846;28;20098;-77
2022/10/16 00:13:49;;;;;;;6.35;1.90;;;11.90;99.90;;;;;;5052281;28;20049;-77
2022/10/16 00:16:15;;;;;;;9.77;2.28;;;11.90;99.90;;;;;;5041147;28;20037;-77
2022/10/16 00:18:41;;;;;;;12.57;2.00;;;11.80;99.90;;;;;;5041699;28;20610;-77
2022/10/16 00:21:13;;;;;;;8.73;2.13;;;11.90;99.90;;;;;;5048331;28;20047;-77
2022/10/16 00:23:39;;;;;;;10.10;2.13;;;11.90;99.90;;;;;;5047066;28;20040;-77
2022/10/16 00:26:09;;;;;;;8.40;1.92;;;11.80;99.90;;;;;;5050748;28;20040;-77
2022/10/16 00:28:35;;;;;;;8.82;1.83;;;11.90;99.90;;;;;;5041865;28;20037;-76
2022/10/16 00:31:10;;;;;;;7.65;1.95;;;12.00;99.90;;;;;;5050867;28;20053;-76
2022/10/16 00:33:37;;;;;;;10.73;2.10;;;11.90;99.90;;;;;;5050359;28;20090;-76
2022/10/16 00:36:04;;;;;;;6.43;2.08;;;11.90;99.90;;;;;;5051392;28;20123;-77
2022/10/16 00:38:29;;;;;;;9.82;1.92;;;11.90;99.90;;;;;;5035514;28;20055;-76
2022/10/16 00:40:56;;;;;;;6.82;1.52;;;11.90;99.90;;;;;;5050194;28;20041;-77
2022/10/16 00:43:41;;;;;;;10.10;2.10;;;12.00;99.90;;;;;;5047853;28;20083;-77
2022/10/16 00:46:18;;;;;;;9.43;1.98;;;11.90;99.90;;;;;;5046924;28;20049;-76
2022/10/16 00:48:53;;;;;;;6.22;1.70;;;12.00;99.90;;;;;;5025912;28;20070;-77
2022/10/16 00:51:25;;;;;;;6.97;2.00;;;11.90;99.90;;;;;;5035786;28;20040;-76
2022/10/16 00:53:51;;;;;;;12.70;2.00;;;12.00;99.90;;;;;;5032832;28;20040;-76
2022/10/16 00:56:17;;;;;;;9.45;2.10;;;11.90;99.90;;;;;;5039101;28;20076;-76
2022/10/16 00:58:43;;;;;;;7.97;1.70;;;12.10;99.90;;;;;;5025906;28;20073;-77
2022/10/16 01:01:09;;;;;;;8.43;1.80;;;12.10;99.90;;;;;;5044947;28;20084;-77
2022/10/16 01:03:36;;;;;;;5.93;1.40;;;12.10;99.90;;;;;;5049221;28;20148;-76
2022/10/16 01:06:14;;;;;;;7.50;1.80;;;12.20;99.90;;;;;;5049026;28;20060;-76
2022/10/16 01:08:50;;;;;;;8.80;1.60;;;12.00;99.90;;;;;;5025242;28;20041;-77
2022/10/16 01:11:33;;;;;;;7.72;1.90;;;12.00;99.90;;;;;;5047455;28;20045;-77
2022/10/16 01:14:08;;;;;;;9.20;1.88;;;12.10;99.90;;;;;;5048664;28;20048;-76
2022/10/16 01:16:53;;;;;;;8.40;1.55;;;12.10;99.90;;;;;;5036223;28;20051;-77
2022/10/16 01:19:44;;;;;;;6.13;1.65;;;12.10;99.90;;;;;;5046154;28;20032;-77
2022/10/16 01:22:10;;;;;;;6.97;1.60;;;12.10;99.90;;;;;;5046068;28;20049;-77
2022/10/16 01:24:42;;;;;;;9.07;1.83;;;12.20;99.90;;;;;;5051814;28;20037;-77
2022/10/16 01:27:12;;;;;;;8.20;1.50;;;12.10;99.90;;;;;;5034553;28;20415;-76
2022/10/16 01:30:02;;;;;;;7.47;1.58;;;12.20;99.90;;;;;;5048743;28;20324;-77
2022/10/16 01:32:33;;;;;;;7.65;1.60;;;12.20;99.90;;;;;;5048766;28;20067;-76
2022/10/16 01:35:23;;;;;;;5.10;1.33;;;12.30;99.90;;;;;;5049269;28;20053;-77
2022/10/16 01:38:16;;;;;;;12.35;1.70;;;12.30;99.90;;;;;;5030631;28;20093;-76
2022/10/16 01:40:47;;;;;;;5.30;1.35;;;12.30;99.90;;;;;;5052611;28;20056;-76
2022/10/16 01:43:18;;;;;;;7.65;2.03;;;12.40;99.90;;;;;;5054362;28;20120;-76
2022/10/16 01:45:45;;;;;;;7.18;1.50;;;12.50;99.90;;;;;;5048987;28;20131;-77
2022/10/16 01:48:15;;;;;;;7.43;1.45;;;12.40;99.90;;;;;;5031609;28;20045;-77
2022/10/16 01:50:44;;;;;;;6.18;1.48;;;12.50;99.90;;;;;;5050466;28;20080;-76
2022/10/16 01:53:13;;;;;;;9.73;1.88;;;12.50;99.90;;;;;;5046966;28;20593;-76
2022/10/16 01:55:44;;;;;;;10.13;1.75;;;12.50;99.90;;;;;;5047426;28;20067;-76
2022/10/16 01:58:12;;;;;;;5.95;1.42;;;12.50;99.90;;;;;;5030987;28;20049;-76
2022/10/16 02:00:41;;;;;;;8.18;1.52;;;12.40;99.90;;;;;;5031461;28;20041;-76
2022/10/16 02:03:08;;;;;;;7.68;1.63;;;12.50;99.90;;;;;;5046003;28;20138;-76
2022/10/16 02:05:42;;;;;;;7.70;1.90;;;12.50;99.90;;;;;;5045789;28;20053;-76
2022/10/16 02:08:08;;;;;;;4.38;1.70;;;12.50;99.90;;;;;;5032129;28;20044;-76
2022/10/16 02:10:35;;;;;;;5.72;1.58;;;12.50;99.90;;;;;;5048814;28;20063;-76
2022/10/16 02:13:26;;;;;;;4.90;1.90;;;12.50;99.90;;;;;;5052255;28;20052;-75
2022/10/16 02:15:52;;;;;;;6.88;1.77;;;12.50;99.90;;;;;;5045183;28;20432;-76
2022/10/16 02:18:18;;;;;;;5.45;1.80;;;12.60;99.90;;;;;;5030021;28;20049;-76
2022/10/16 02:21:13;;;;;;;4.88;1.70;;;12.50;99.90;;;;;;5047274;28;20041;-76
2022/10/16 02:24:02;;;;;;;5.50;1.67;;;12.60;99.90;;;;;;5029650;28;20574;-76
2022/10/16 02:26:35;;;;;;;8.80;1.67;;;12.60;99.90;;;;;;5037359;28;20630;-76
2022/10/16 02:29:06;;;;;;;4.13;1.65;;;12.60;99.90;;;;;;5044054;28;20083;-76
2022/10/16 02:31:34;;;;;;;;;;;12.60;99.90;;;;;;5048554;28;20041;-76
2022/10/16 02:34:04;;;;;;;6.78;1.90;;;12.50;99.90;;;;;;5047110;28;19931;-76
2022/10/16 02:36:31;;;;;;;8.10;1.85;;;12.60;99.90;;;;;;5036091;28;20040;-76
2022/10/16 02:39:00;;;;;;;10.32;1.83;;;12.50;99.90;;;;;;5046170;28;20060;-76
2022/10/16 02:41:27;;;;;;;7.38;1.85;;;12.50;99.90;;;;;;5048339;28;20484;-76
2022/10/16 02:43:53;;;;;;;4.15;1.70;;;12.50;99.90;;;;;;5048166;28;20094;-76
2022/10/16 02:46:19;;;;;;;5.47;1.40;;;12.50;99.90;;;;;;5039619;28;20048;-76
2022/10/16 02:48:44;;;;;;;6.30;1.48;;;12.70;99.90;;;;;;5042526;28;20083;-76
2022/10/16 02:51:10;;;;;;;6.28;1.45;;;12.50;99.90;;;;;;5049694;28;20075;-76
2022/10/16 02:53:36;;;;;;;4.47;1.50;;;12.50;99.90;;;;;;5053953;28;20089;-76
2022/10/16 02:56:01;;;;;;;4.93;1.70;;;12.40;99.90;;;;;;5045774;28;20053;-76
2022/10/16 02:58:27;;;;;;;9.15;1.73;;;12.40;99.90;;;;;;5029725;28;20074;-76
2022/10/16 03:00:53;;;;;;;4.25;1.50;;;12.40;99.90;;;;;;5046655;28;20041;-76
2022/10/16 03:03:18;;;;;;;5.18;1.30;;;12.30;99.90;;;;;;5044666;28;20045;-76
2022/10/16 03:05:45;;;;;;;8.13;1.70;;;12.30;99.90;;;;;;5047632;28;20937;-76
2022/10/16 03:08:12;;;;;;;6.60;1.65;;;12.30;99.90;;;;;;5030890;28;20040;-76
2022/10/16 03:10:37;;;;;;;9.27;1.80;;;12.30;99.90;;;;;;5045881;28;20083;-76
2022/10/16 03:13:03;;;;;;;4.20;1.45;;;12.20;99.90;;;;;;5047796;28;20060;-76
2022/10/16 03:15:29;;;;;;;5.07;1.33;;;12.20;99.90;;;;;;5030754;28;20044;-75
2022/10/16 03:17:57;;;;;;;4.55;1.60;;;12.20;99.90;;;;;;5029451;28;20095;-76
2022/10/16 03:20:22;;;;;;;7.28;1.70;;;12.10;99.90;;;;;;5032177;28;20048;-76
2022/10/16 03:22:48;;;;;;;5.13;1.40;;;12.10;99.90;;;;;;5046397;28;20052;-76
2022/10/16 03:25:14;;;;;;;5.82;1.50;;;12.10;99.90;;;;;;5048453;28;20059;-76
2022/10/16 03:27:39;;;;;;;4.40;1.35;;;12.00;99.90;;;;;;5032811;28;20045;-76
2022/10/16 03:30:06;;;;;;;5.18;1.58;;;12.10;99.90;;;;;;5045791;28;20044;-75
2022/10/16 03:32:31;;;;;;;5.90;1.42;;;12.10;99.90;;;;;;5029965;28;20047;-76
2022/10/16 03:34:57;;;;;;;5.43;1.50;;;12.20;99.90;;;;;;5045300;28;20060;-76
2022/10/16 03:37:23;;;;;;;3.65;1.50;;;12.20;99.90;;;;;;5018399;28;20049;-76
2022/10/16 03:39:48;;;;;;;4.57;1.60;;;12.10;99.90;;;;;;5050299;28;20060;-76
2022/10/16 03:42:14;;;;;;;6.43;1.63;;;12.00;99.90;;;;;;5054724;28;20095;-76
2022/10/16 03:44:40;;;;;;;4.78;1.35;;;12.10;99.90;;;;;;5047708;28;20530;-75
2022/10/16 03:47:05;;;;;;;4.22;1.50;;;12.00;99.90;;;;;;5031457;28;20127;-75
2022/10/16 03:49:31;;;;;;;4.50;1.70;;;12.10;99.90;;;;;;5050481;28;20754;-75
2022/10/16 03:51:57;;;;;;;5.88;1.52;;;12.10;99.90;;;;;;5052840;28;20052;-76
2022/10/16 03:54:22;;;;;;;4.15;1.42;;;12.00;99.90;;;;;;5048952;28;20419;-75
2022/10/16 03:56:48;;;;;;;4.82;1.67;;;12.10;99.90;;;;;;5036081;28;20090;-76
2022/10/16 03:59:14;;;;;;;2.65;1.42;;;12.00;99.90;;;;;;5047570;28;20396;-75
2022/10/16 04:01:39;;;;;;;6.70;2.13;;;12.00;99.90;;;;;;5051270;28;20053;-75
2022/10/16 04:04:05;;;;;;;15.25;9.00;;;12.00;99.90;;;;;;5048937;28;20056;-75
2022/10/16 04:06:31;;;;;;;14.02;8.52;;;12.00;99.90;;;;;;5035865;28;20043;-76
2022/10/16 04:08:56;;;;;;;11.57;5.95;;;12.00;99.90;;;;;;5070003;28;20074;-76
2022/10/16 04:11:22;;;;;;;8.18;2.95;;;12.10;99.90;;;;;;5048895;28;20049;-76
2022/10/16 04:13:48;;;;;;;8.55;2.47;;;12.00;99.90;;;;;;5017892;28;20683;-75
2022/10/16 04:16:14;;;;;;;7.35;1.70;;;11.90;99.90;;;;;;5041032;28;20083;-76
2022/10/16 04:18:39;;;;;;;6.90;1.85;;;11.90;99.90;;;;;;5042481;28;20502;-76
2022/10/16 04:21:07;;;;;;;8.63;6.65;;;11.90;99.90;;;;;;5031505;28;20053;-76
2022/10/16 04:23:33;;;;;;;5.57;3.58;;;11.90;99.90;;;;;;4978518;28;20055;-76
2022/10/16 04:25:59;;;;;;;4.53;1.52;;;12.00;99.90;;;;;;4980020;28;20049;-76
2022/10/16 04:28:25;;;;;;;4.25;1.83;;;12.00;99.90;;;;;;4986461;28;20126;-76
2022/10/16 04:30:51;;;;;;;5.45;1.80;;;12.00;99.90;;;;;;4992799;28;20052;-75
2022/10/16 04:33:17;;;;;;;5.28;1.70;;;12.00;99.90;;;;;;4979739;28;20925;-75
2022/10/16 04:35:42;;;;;;;7.30;1.55;;;12.00;99.90;;;;;;4993148;28;20064;-76
2022/10/16 04:38:08;;;;;;;6.95;1.73;;;12.00;99.90;;;;;;4991553;28;20048;-76
2022/10/16 04:40:36;;;;;;;4.97;1.73;;;11.90;99.90;;;;;;4998610;28;20151;-76
2022/10/16 04:43:02;;;;;;;2.78;1.40;;;11.90;99.90;;;;;;4984266;28;20049;-76
2022/10/16 04:45:28;;;;;;;6.78;1.58;;;12.00;99.90;;;;;;4993648;28;20184;-76
2022/10/16 04:47:57;;;;;;;5.18;1.95;;;11.90;99.90;;;;;;4997120;28;20053;-76
2022/10/16 04:50:23;;;;;;;4.95;1.45;;;11.90;99.90;;;;;;4984655;28;20498;-76
2022/10/16 04:52:49;;;;;;;7.05;1.92;;;12.00;99.90;;;;;;4998928;28;20092;-76
2022/10/16 04:55:15;;;;;;;6.75;2.03;;;12.10;99.90;;;;;;4987531;28;20037;-75
2022/10/16 04:57:40;;;;;;;5.30;1.85;;;12.10;99.90;;;;;;4984895;28;20057;-75
2022/10/16 05:00:07;;;;;;;7.10;2.15;;;12.20;99.90;;;;;;4951154;28;20056;-75
2022/10/16 05:02:33;;;;;;;5.28;1.95;;;12.20;99.90;;;;;;4984779;28;20326;-76
2022/10/16 05:04:59;;;;;;;7.95;2.08;;;12.20;99.90;;;;;;4993026;28;20737;-76
2022/10/16 05:07:25;;;;;;;6.13;1.90;;;12.20;99.90;;;;;;5023435;28;20048;-75
2022/10/16 05:09:51;;;;;;;5.80;1.73;;;12.20;99.90;;;;;;5038578;28;20131;-76
2022/10/16 05:12:17;;;;;;;7.22;2.30;;;12.30;99.90;;;;;;5046521;28;20548;-75
2022/10/16 05:14:43;;;;;;;5.07;1.98;;;12.20;99.90;;;;;;5025125;28;20080;-76
2022/10/16 05:17:09;;;;;;;7.03;1.98;;;12.30;99.90;;;;;;5033107;28;20087;-75
2022/10/16 05:19:34;;;;;;;5.75;2.00;;;12.20;99.90;;;;;;5024854;28;20098;-75
2022/10/16 05:22:00;;;;;;;8.05;2.47;;;12.30;99.90;;;;;;5031616;28;20128;-75
2022/10/16 05:24:26;;;;;;;5.47;2.03;;;12.30;99.90;;;;;;5039186;28;20048;-75
2022/10/16 05:26:52;;;;;;;7.63;2.55;;;12.40;99.90;;;;;;5035571;28;20056;-76
2022/10/16 05:29:18;;;;;;;6.43;2.08;;;12.30;99.90;;;;;;5050484;28;20141;-75
2022/10/16 05:31:44;;;;;;;5.45;2.20;;;12.40;99.90;;;;;;5052230;28;20052;-75
2022/10/16 05:34:09;;;;;;;8.95;2.17;;;12.30;99.90;;;;;;5054497;28;20041;-75
2022/10/16 05:36:35;;;;;;;5.80;2.40;;;12.30;99.90;;;;;;5041378;28;20044;-75
2022/10/16 05:39:01;;;;;;;7.00;2.42;;;12.50;99.90;;;;;;5046471;28;20159;-75
2022/10/16 05:41:26;;;;;;;9.98;2.40;;;12.40;99.90;;;;;;5049233;28;20126;-76
2022/10/16 05:43:53;;;;;;;4.05;2.28;;;12.30;99.90;;;;;;5048713;28;20048;-74
2022/10/16 05:46:18;;;;;;;8.00;2.50;;;12.40;99.90;;;;;;5038724;28;20047;-75
2022/10/16 05:48:44;;;;;;;6.60;2.90;;;12.20;99.90;;;;;;5041892;28;20033;-76
2022/10/16 05:51:12;;;;;;;4.72;2.83;;;12.20;99.90;;;;;;5050241;28;20132;-75
2022/10/16 05:53:39;;;;;;;7.55;2.30;;;12.20;99.90;;;;;;5031498;28;20083;-75
2022/10/16 05:56:07;;;;;;;7.60;2.30;;;12.20;99.90;;;;;;5053286;28;20072;-75
2022/10/16 05:58:35;;;;;;;8.55;2.40;;;12.10;99.90;;;;;;5035181;28;20044;-75
2022/10/16 06:01:07;;;;;;;8.18;2.47;;;12.10;99.90;;;;;;5053495;28;20040;-75
2022/10/16 06:03:33;;;;;;;;;;;12.10;99.90;;;;;;5047471;28;20102;-76
2022/10/16 06:05:58;;;;;;;5.40;2.40;;;12.10;99.90;;;;;;5048003;28;20075;-76
2022/10/16 06:08:24;;;;;;;8.38;2.90;;;12.10;99.90;;;;;;5014436;28;20513;-75
2022/10/16 06:11:10;;;;;;;6.93;2.63;;;12.10;99.90;;;;;;5044970;28;20571;-75
2022/10/16 06:13:36;;;;;;;7.75;2.97;;;12.20;99.90;;;;;;5046422;28;20079;-75
2022/10/16 06:16:04;;;;;;;9.13;2.92;;;12.20;99.90;;;;;;5047678;28;20045;-76
2022/10/16 06:18:30;;;;;;;8.00;2.88;;;12.20;99.90;;;;;;5031999;28;20044;-76
2022/10/16 06:20:56;;;;;;;9.02;3.08;;;12.20;99.90;;;;;;5049459;28;20475;-75
2022/10/16 06:23:22;;;;;;;5.85;2.70;;;12.20;99.90;;;;;;5047081;28;20045;-75
2022/10/16 06:25:48;;;;;;;8.52;3.00;;;12.20;99.90;;;;;;5047690;28;20057;-76
2022/10/16 06:28:14;;;;;;;8.90;3.30;;;12.20;99.90;;;;;;5031266;28;20047;-75
2022/10/16 06:30:41;;;;;;;6.78;2.80;;;12.30;99.90;;;;;;5050315;28;20061;-75
2022/10/16 06:33:06;;;;;;;7.70;3.10;;;12.30;99.90;;;;;;5047702;28;20115;-75
2022/10/16 06:35:32;;;;;;;5.15;2.72;;;12.30;99.90;;;;;;5048503;28;20128;-76
2022/10/16 06:37:58;;;;;;;7.53;2.88;;;12.40;99.90;;;;;;5033820;28;20128;-75
2022/10/16 06:40:24;;;;;;;9.05;3.00;;;12.40;99.90;;;;;;5047557;28;20052;-76
2022/10/16 06:42:51;;;;;;;8.55;3.75;;;12.40;99.90;;;;;;5049329;28;20408;-75
2022/10/16 06:45:17;;;;;;;7.30;3.47;;;12.30;99.90;;;;;;5030900;28;20045;-75
2022/10/16 06:47:43;;;;;;;10.98;3.50;;;12.50;99.90;;;;;;5031943;28;20040;-75
2022/10/16 06:50:08;;;;;;;15.23;4.95;;;12.40;99.90;;;;;;5050319;28;20068;-76
2022/10/16 06:52:34;;;;;;;29.67;10.35;;;12.50;99.90;;;;;;5028433;28;20069;-75
2022/10/16 06:55:00;;;;;;;20.15;8.27;;;12.40;99.90;;;;;;5030141;28;20079;-75
2022/10/16 06:57:26;;;;;;;19.55;8.93;;;12.50;99.90;;;;;;5030499;28;20053;-75
2022/10/16 06:59:51;;;;;;;6.97;3.45;;;12.50;99.90;;;;;;5033657;28;20052;-75
2022/10/16 07:02:17;;;;;;;9.35;3.47;;;12.50;99.90;;;;;;5029514;28;20095;-75
2022/10/16 07:04:43;;;;;;;10.25;5.13;;;12.50;99.90;;;;;;5032469;28;20045;-75
2022/10/16 07:07:08;;;;;;;9.95;4.57;;;12.50;99.90;;;;;;5034399;28;20053;-75
2022/10/16 07:09:34;;;;;;;9.02;3.70;;;12.50;99.90;;;;;;5047643;28;20136;-75
2022/10/16 07:11:59;;;;;;;6.30;2.83;;;12.50;99.90;;;;;;5050872;28;20036;-75
2022/10/16 07:14:25;;;;;;;7.97;2.60;;;12.60;99.90;;;;;;5049075;28;20076;-75
2022/10/16 07:16:51;;;;;;;7.57;2.55;;;12.50;99.90;;;;;;5036249;28;20838;-75
2022/10/16 07:19:17;;;;;;;7.43;2.28;;;12.60;99.90;;;;;;5047841;28;20131;-74
2022/10/16 07:21:44;;;;;;;6.07;2.40;;;12.70;99.90;;;;;;5048886;28;20080;-74
2022/10/16 07:24:16;;;;;;;6.82;2.35;;;12.60;99.90;;;;;;5051125;28;20041;-75
2022/10/16 07:26:44;;;;;;;8.63;2.47;;;12.90;99.90;;;;;;5041858;28;20994;-75
2022/10/16 07:29:16;;;;;;;6.65;2.28;;;12.70;99.90;;;;;;5049791;28;20049;-75
2022/10/16 07:31:42;;;;;;;8.98;1.60;;;12.70;99.90;;;;;;5054532;28;20440;-75
2022/10/16 07:34:09;;;;;;;6.30;1.85;;;12.80;99.90;;;;;;5036323;28;20040;-75
2022/10/16 07:36:34;;;;;;;7.47;1.88;;;12.80;99.90;;;;;;5036310;28;20081;-74
2022/10/16 07:39:00;;;;;;;4.60;2.10;;;12.80;99.90;;;;;;5048129;28;20073;-75
2022/10/16 07:41:26;;;;;;;6.93;2.33;;;12.80;99.90;;;;;;5052601;28;20063;-75
2022/10/16 07:43:54;;;;;;;8.88;4.22;;;12.80;99.90;;;;;;5050855;28;20060;-76
2022/10/16 07:46:21;;;;;;;6.32;2.13;;;12.90;99.90;;;;;;5043416;28;20124;-75
2022/10/16 07:48:47;;;;;;;8.07;2.65;;;12.60;99.90;;;;;;5042800;28;20571;-76
2022/10/16 07:51:22;;;;;;;8.75;2.42;;;12.70;99.90;;;;;;5036661;28;20155;-75
2022/10/16 07:53:48;;;;;;;9.55;2.47;;;12.70;99.90;;;;;;5035400;28;20044;-75
2022/10/16 07:56:15;;;;;;;4.07;2.05;;;12.80;99.90;;;;;;5024546;28;20080;-75
2022/10/16 07:58:41;;;;;;;5.80;2.15;;;12.60;99.90;;;;;;5038796;28;21933;-75
2022/10/16 08:01:13;;;;;;;7.18;2.25;;;12.60;99.90;;;;;;5047453;28;20051;-75
2022/10/16 08:03:42;;;;;;;8.45;2.72;;;12.50;99.90;;;;;;5051319;28;20049;-76
2022/10/16 08:06:07;;;;;;;7.50;2.50;;;12.60;99.90;;;;;;5052711;28;20090;-74
2022/10/16 08:08:33;;;;;;;6.95;2.58;;;12.50;99.90;;;;;;5036825;28;20045;-75
2022/10/16 08:10:59;;;;;;;7.03;2.83;;;12.70;99.90;;;;;;5019862;28;20107;-75
2022/10/16 08:13:26;;;;;;;6.88;2.60;;;12.80;99.90;;;;;;4939307;28;20041;-75
2022/10/16 08:15:53;;;;;;;6.00;2.60;;;12.80;99.90;;;;;;4938863;28;22140;-75
2022/10/16 08:18:19;;;;;;;6.28;2.78;;;13.00;99.90;;;;;;4928884;28;20042;-75
2022/10/16 08:20:45;;;;;;;7.63;2.80;;;13.10;99.90;;;;;;4921530;28;20057;-75
2022/10/16 08:23:12;;;;;;;4.63;2.50;;;13.20;99.90;;;;;;4935213;28;20563;-75
2022/10/16 08:25:39;;;;;;;4.03;2.50;;;13.40;99.90;;;;;;4938786;28;20756;-75
2022/10/16 08:28:06;;;;;;;10.45;3.00;;;13.40;99.90;;;;;;4923327;28;20041;-74
2022/10/16 08:30:33;;;;;;;6.07;2.17;;;13.40;99.90;;;;;;4936428;28;21881;-75
2022/10/16 08:32:59;;;;;;;8.35;2.80;;;13.40;99.90;;;;;;4934791;28;20061;-75
2022/10/16 08:35:25;;;;;;;7.25;2.05;;;13.30;99.90;;;;;;4935326;28;20057;-75
2022/10/16 08:37:50;;;;;;;7.65;2.38;;;13.20;99.90;;;;;;4925793;28;20049;-74
2022/10/16 08:40:24;;;;;;;7.80;2.30;;;13.10;99.90;;;;;;4936179;28;20165;-75
2022/10/16 08:43:14;;;;;;;7.10;2.17;;;13.30;99.90;;;;;;4935882;28;20045;-74
2022/10/16 08:46:01;;;;;;;6.45;2.20;;;13.50;99.90;;;;;;4952540;28;20110;-76
2022/10/16 08:48:43;;;;;;;7.25;2.38;;;13.50;99.90;;;;;;4921427;28;20907;-75
2022/10/16 08:51:17;;;;;;;13.93;2.55;;;13.60;99.90;;;;;;4918481;28;20572;-74
2022/10/16 08:53:49;;;;;;;6.43;2.13;;;13.60;99.90;;;;;;4934343;28;20057;-75
2022/10/16 08:56:17;;;;;;;9.20;2.40;;;13.60;99.90;;;;;;4927613;28;22055;-76
2022/10/16 08:58:43;;;;;;;8.55;2.00;;;13.60;99.90;;;;;;4946090;28;20681;-75
2022/10/16 09:01:14;;;;;;;9.68;2.47;;;13.50;99.90;;;;;;4935848;28;20057;-75
2022/10/16 09:04:13;;;;;;;8.27;1.88;;;13.50;99.90;;;;;;4939216;28;21837;-75
2022/10/16 09:07:16;;;;;;;13.25;2.47;;;13.60;99.90;;;;;;4929377;28;20040;-75
2022/10/16 09:10:09;;;;;;;8.45;2.42;;;13.60;99.90;;;;;;4879319;28;21674;-76
2022/10/16 09:12:42;;;;;;;8.57;1.88;;;13.90;99.90;;;;;;4937537;28;20054;-74
2022/10/16 09:15:33;;;;;;;10.55;2.10;;;14.10;99.90;;;;;;4957831;28;20160;-74
2022/10/16 09:18:02;;;;;;;;;;;14.10;99.90;;;;;;4938719;28;20053;-75
2022/10/16 09:20:28;;;;;;;11.05;2.13;;;14.20;99.90;;;;;;4935162;28;20138;-74
2022/10/16 09:23:03;;;;;;;10.20;2.50;;;14.30;99.90;;;;;;4936547;28;20054;-74
2022/10/16 09:25:29;;;;;;;11.32;2.08;;;14.50;99.90;;;;;;4936369;28;20068;-75
2022/10/16 09:27:55;;;;;;;11.27;2.28;;;14.60;99.90;;;;;;4927302;28;20053;-74
2022/10/16 09:30:22;;;;;;;11.77;2.25;;;14.60;99.90;;;;;;4920161;28;20045;-75
2022/10/16 09:32:52;;;;;;;12.00;2.30;;;14.60;99.90;;;;;;4917528;28;20046;-74
2022/10/16 09:35:21;;;;;;;13.80;2.15;;;14.70;99.90;;;;;;4933894;28;20122;-74
2022/10/16 09:37:53;;;;;;;12.50;2.28;;;14.70;99.90;;;;;;4924114;28;20080;-74
2022/10/16 09:40:37;;;;;;;10.55;2.72;;;14.70;99.90;;;;;;4933991;28;20182;-73
2022/10/16 09:43:24;;;;;;;17.75;3.47;;;14.60;99.90;;;;;;4933780;28;21668;-75
2022/10/16 09:46:01;;;;;;;13.00;2.90;;;14.60;99.90;;;;;;4934740;28;20045;-75
2022/10/16 09:48:37;;;;;;;15.15;3.28;;;14.70;99.90;;;;;;4922144;28;20050;-74
2022/10/16 09:51:05;;;;;;;12.82;2.45;;;14.90;99.90;;;;;;4933511;28;20075;-74
2022/10/16 09:53:45;;;;;;;14.30;2.75;;;15.00;99.90;;;;;;4935747;28;21902;-73
2022/10/16 09:56:21;;;;;;;11.90;2.53;;;14.90;99.90;;;;;;4925869;28;20575;-73
2022/10/16 09:58:55;;;;;;;12.68;2.60;;;15.00;99.90;;;;;;4931016;28;20048;-74
2022/10/16 10:01:26;;;;;;;15.50;2.90;;;15.10;99.90;;;;;;4933446;28;21460;-73
2022/10/16 10:04:00;;;;;;;13.87;2.33;;;15.10;99.90;;;;;;4933909;28;20053;-74
2022/10/16 10:06:34;;;;;;;8.55;2.20;;;15.10;99.90;;;;;;4928468;28;20824;-74
2022/10/16 10:09:05;;;;;;;13.00;2.47;;;15.30;99.90;;;;;;4939570;28;21836;-73
2022/10/16 10:11:47;;;;;;;12.43;2.30;;;15.30;99.90;;;;;;4935872;28;20049;-75
2022/10/16 10:14:43;;;;;;;12.73;2.45;;;15.40;99.90;;;;;;4934966;28;20076;-74
2022/10/16 10:17:17;;;;;;;13.40;2.78;;;15.50;99.90;;;;;;4921184;28;20093;-74
2022/10/16 10:19:50;;;;;;;18.52;2.65;;;15.50;99.90;;;;;;4937224;28;20106;-73
2022/10/16 10:22:27;;;;;;;15.52;2.60;;;15.60;99.90;;;;;;4936945;28;20044;-73
2022/10/16 10:25:12;;;;;;;11.10;2.97;;;15.50;99.90;;;;;;4937148;28;20049;-74
2022/10/16 10:28:06;;;;;;;15.57;2.80;;;15.60;99.90;;;;;;4923353;28;21527;-74
2022/10/16 10:30:50;;;;;;;19.08;3.03;;;15.70;99.90;;;;;;4933866;28;20057;-73
2022/10/16 10:33:40;;;;;;;15.48;3.45;;;15.80;99.90;;;;;;4935913;28;20167;-74
2022/10/16 10:36:06;;;;;;;14.77;3.20;;;16.00;99.90;;;;;;4937963;28;20076;-73
2022/10/16 10:38:51;;;;;;;17.17;3.30;;;16.10;99.90;;;;;;4934409;28;20134;-75
2022/10/16 10:41:30;;;;;;;14.55;2.80;;;16.10;99.90;;;;;;4958655;28;20563;-74
2022/10/16 10:44:41;;;;;;;13.82;2.72;;;16.10;99.90;;;;;;4937617;28;20099;-73
2022/10/16 10:47:40;;;;;;;14.48;3.38;;;16.00;99.90;;;;;;4903413;28;20064;-73
2022/10/16 10:50:14;;;;;;;15.57;3.03;;;16.10;99.90;;;;;;4935266;28;20061;-74
2022/10/16 10:52:40;;;;;;;16.70;3.35;;;15.90;99.90;;;;;;4935091;28;20042;-73
2022/10/16 10:55:12;;;;;;;14.50;2.72;;;15.60;99.90;;;;;;4936030;28;20084;-74
2022/10/16 10:57:40;;;;;;;15.00;3.13;;;15.50;99.90;;;;;;4921573;28;20049;-73
2022/10/16 11:00:31;;;;;;;11.30;2.63;;;15.60;99.90;;;;;;4938738;28;20068;-73
2022/10/16 11:03:27;;;;;;;12.18;3.33;;;15.70;99.90;;;;;;4937807;28;20815;-72
2022/10/16 11:06:17;;;;;;;12.50;2.50;;;15.60;99.90;;;;;;4930518;28;20045;-73
2022/10/16 11:08:59;;;;;;;16.02;2.97;;;15.60;99.90;;;;;;4909916;28;20297;-74
2022/10/16 11:11:27;;;;;;;18.58;2.72;;;15.70;99.90;;;;;;4939055;28;20049;-74
2022/10/16 11:14:13;;;;;;;10.50;2.70;;;15.70;99.90;;;;;;4927829;28;20436;-73
2022/10/16 11:16:45;;;;;;;14.63;2.42;;;15.60;99.90;;;;;;4927929;28;20060;-73
2022/10/16 11:19:40;;;;;;;12.85;2.55;;;15.60;99.90;;;;;;4936507;28;20060;-74
2022/10/16 11:22:30;;;;;;;19.20;3.17;;;15.50;99.90;;;;;;4921499;28;20610;-73
2022/10/16 11:25:15;;;;;;;14.82;2.67;;;15.50;99.90;;;;;;4955388;28;20091;-73
2022/10/16 11:27:43;;;;;;;14.73;2.60;;;15.40;99.90;;;;;;4925174;28;20516;-73
2022/10/16 11:30:30;;;;;;;13.57;2.92;;;15.40;99.90;;;;;;4940025;28;20050;-73
2022/10/16 11:33:02;;;;;;;16.10;2.60;;;15.20;99.90;;;;;;4938923;28;20385;-73
2022/10/16 11:35:40;;;;;;;15.60;3.22;;;15.20;99.90;;;;;;4937687;28;20131;-74
2022/10/16 11:38:25;;;;;;;12.35;2.70;;;15.00;99.90;;;;;;4916860;28;20524;-74
2022/10/16 11:40:54;;;;;;;11.82;2.95;;;15.00;99.90;;;;;;4936751;28;20138;-73
2022/10/16 11:43:30;;;;;;;24.30;3.90;;;15.00;99.90;;;;;;4934999;28;21778;-73
2022/10/16 11:46:00;;;;;;;22.05;3.40;;;15.10;99.90;;;;;;4935849;28;20564;-73
2022/10/16 11:48:40;;;;;;;16.77;3.58;;;15.40;99.90;;;;;;4924992;28;20298;-72
2022/10/16 11:51:36;;;;;;;13.50;2.95;;;15.70;99.90;;;;;;4927979;28;20053;-73
2022/10/16 11:54:13;;;;;;;11.82;2.80;;;15.80;99.90;;;;;;4909643;28;20635;-73
2022/10/16 11:56:43;;;;;;;14.50;3.08;;;16.20;99.90;;;;;;4917693;28;20045;-73
2022/10/16 11:59:36;;;;;;;16.45;3.20;;;16.40;99.90;;;;;;4936462;28;20045;-72
2022/10/16 12:02:29;;;;;;;15.23;3.25;;;16.60;99.90;;;;;;4937513;28;21820;-74
2022/10/16 12:05:32;;;;;;;12.45;2.60;;;16.60;99.90;;;;;;4934107;28;21131;-74
2022/10/16 12:08:04;;;;;;;15.68;2.85;;;16.90;99.90;;;;;;4923411;28;20041;-74
2022/10/16 12:10:31;;;;;;;;;;;17.20;99.90;;;;;;4939147;28;20135;-72
2022/10/16 12:12:57;;;;;;;15.82;3.20;;;16.90;99.90;;;;;;4939352;28;19964;-74
2022/10/16 12:15:33;;;;;;;19.08;3.45;;;16.60;99.90;;;;;;4940830;28;20057;-73
2022/10/16 12:17:59;;;;;;;13.80;3.30;;;16.40;99.90;;;;;;4980396;28;20124;-73
2022/10/16 12:20:30;;;;;;;14.15;3.05;;;16.10;99.90;;;;;;5002473;28;20056;-73
2022/10/16 12:23:02;;;;;;;13.05;2.85;;;16.10;99.90;;;;;;4989810;28;20099;-73
2022/10/16 12:25:46;;;;;;;13.15;2.53;;;16.10;99.90;;;;;;5005634;28;20055;-72
2022/10/16 12:28:14;;;;;;;16.73;2.90;;;16.00;99.90;;;;;;5000199;28;20943;-72
2022/10/16 12:30:41;;;;;;;16.98;3.10;;;15.90;99.90;;;;;;4999527;28;20061;-72
2022/10/16 12:33:25;;;;;;;13.65;2.42;;;15.80;99.90;;;;;;4995589;28;20049;-73
2022/10/16 12:35:51;;;;;;;15.13;3.17;;;15.70;99.90;;;;;;5008963;28;20569;-72
2022/10/16 12:38:19;;;;;;;15.35;2.70;;;15.60;99.90;;;;;;4988679;28;20053;-72
2022/10/16 12:40:57;;;;;;;8.85;2.65;;;15.50;99.90;;;;;;5004734;28;22038;-73
2022/10/16 12:43:25;;;;;;;12.90;2.10;;;15.50;99.90;;;;;;4994776;28;20048;-73
2022/10/16 12:46:04;;;;;;;11.52;2.33;;;15.40;99.90;;;;;;5000426;28;20043;-74
2022/10/16 12:48:31;;;;;;;14.55;2.78;;;15.30;99.90;;;;;;4996788;28;21737;-72
2022/10/16 12:50:56;;;;;;;14.40;2.80;;;15.40;99.90;;;;;;5003087;28;20044;-72
2022/10/16 12:53:25;;;;;;;13.55;2.65;;;15.40;99.90;;;;;;4993156;28;20606;-72
2022/10/16 12:56:16;;;;;;;11.30;2.47;;;15.40;99.90;;;;;;5009755;28;21351;-73
2022/10/16 12:58:44;;;;;;;13.47;2.60;;;15.30;99.90;;;;;;5006892;28;20052;-72
2022/10/16 13:01:36;;;;;;;15.13;2.65;;;15.30;99.90;;;;;;4985263;28;20291;-72
2022/10/16 13:04:20;;;;;;;15.95;2.97;;;15.30;99.90;;;;;;4989405;28;21574;-72
2022/10/16 13:07:09;;;;;;;20.33;2.60;;;15.40;99.90;;;;;;4964673;28;20045;-72